createdAt,value
2019-02-07T00:01:42.426Z,100336.06
2019-02-07T00:04:09.950Z,100332.47
2019-02-07T00:06:37.471Z,100328.72
2019-02-07T00:09:08.361Z,100319.02
2019-02-07T00:11:35.850Z,100307.00
2019-02-07T00:14:03.790Z,100291.98
2019-02-07T00:16:31.372Z,100298.61
2019-02-07T00:18:58.806Z,100293.20
2019-02-07T00:21:26.290Z,100290.21
2019-02-07T00:23:53.705Z,100291.25
2019-02-07T00:26:21.131Z,100290.30
2019-02-07T00:28:48.525Z,100281.72
2019-02-07T00:31:16.336Z,100280.82
2019-02-07T00:33:43.826Z,100273.73
2019-02-07T00:36:11.660Z,100266.95
2019-02-07T00:38:39.151Z,100262.06
2019-02-07T00:41:06.685Z,100255.75
2019-02-07T00:43:34.104Z,100257.37
2019-02-07T00:46:01.535Z,100253.61
2019-02-07T00:48:29.285Z,100251.14
2019-02-07T00:50:56.731Z,100246.12
2019-02-07T00:53:24.265Z,100245.03
2019-02-07T00:55:51.696Z,100240.41
2019-02-07T00:58:19.132Z,100238.35
2019-02-07T01:00:47.140Z,100240.83
2019-02-07T01:03:14.748Z,100228.13
2019-02-07T01:05:42.431Z,100230.11
2019-02-07T01:08:10.015Z,100220.88
2019-02-07T01:10:37.430Z,100217.47
2019-02-07T01:13:05.010Z,100200.44
2019-02-07T01:15:32.483Z,100212.10
2019-02-07T01:18:00.010Z,100205.52
2019-02-07T01:20:27.410Z,100193.56
2019-02-07T01:22:55.586Z,100195.34
2019-02-07T01:25:23.233Z,100178.78
2019-02-07T01:27:51.225Z,100175.52
2019-02-07T01:30:20.221Z,100170.50
2019-02-07T01:32:47.664Z,100169.20
2019-02-07T01:35:15.057Z,100161.93
2019-02-07T01:37:42.710Z,100156.34
2019-02-07T01:40:13.010Z,100151.05
2019-02-07T01:42:40.485Z,100149.95
2019-02-07T01:45:13.146Z,100140.81
2019-02-07T01:47:39.236Z,100134.70
2019-02-07T01:50:08.750Z,100138.08
2019-02-07T01:52:36.348Z,100122.42
2019-02-07T01:55:04.480Z,100118.59
2019-02-07T01:57:31.972Z,100114.05
2019-02-07T01:59:59.374Z,100110.97
2019-02-07T02:02:26.791Z,100097.78
2019-02-07T02:04:54.269Z,100090.72
2019-02-07T02:07:21.765Z,100093.42
2019-02-07T02:09:49.165Z,100092.67
2019-02-07T02:12:16.716Z,100078.92
2019-02-07T02:14:44.091Z,100066.59
2019-02-07T02:17:11.524Z,100065.41
2019-02-07T02:19:40.718Z,100054.31
2019-02-07T02:22:08.287Z,100040.09
2019-02-07T02:24:35.808Z,100044.69
2019-02-07T02:27:03.321Z,100054.52
2019-02-07T02:29:31.200Z,100047.94
2019-02-07T02:31:58.636Z,100044.98
2019-02-07T02:34:26.082Z,100029.42
2019-02-07T02:36:53.665Z,100022.81
2019-02-07T02:39:21.065Z,100013.00
2019-02-07T02:41:48.439Z,99991.52
2019-02-07T02:44:15.907Z,99999.91
2019-02-07T02:46:43.309Z,99997.15
2019-02-07T02:49:10.976Z,99983.37
2019-02-07T02:51:38.381Z,99987.64
2019-02-07T02:54:05.854Z,99983.37
2019-02-07T02:56:33.316Z,99987.58
2019-02-07T02:59:00.720Z,99974.80
2019-02-07T03:02:02.581Z,99964.77
2019-02-07T03:04:58.356Z,99963.55
2019-02-07T03:07:47.190Z,99964.85
2019-02-07T03:10:42.950Z,99958.48
2019-02-07T03:13:30.245Z,99941.30
2019-02-07T03:16:06.435Z,99934.95
2019-02-07T03:19:05.193Z,99925.74
2019-02-07T03:21:54.885Z,99929.92
2019-02-07T03:24:44.751Z,99931.22
2019-02-07T03:27:37.661Z,99919.19
2019-02-07T03:30:24.852Z,99904.03
2019-02-07T03:33:02.608Z,99901.90
2019-02-07T03:36:01.780Z,99908.33
2019-02-07T03:38:41.545Z,99906.50
2019-02-07T03:41:21.340Z,99903.67
2019-02-07T03:44:14.340Z,99898.00
2019-02-07T03:46:53.754Z,99896.52
2019-02-07T03:49:39.453Z,99891.58
2019-02-07T03:52:24.750Z,99885.98
2019-02-07T03:55:10.349Z,99887.91
2019-02-07T03:58:09.566Z,99882.08
2019-02-07T04:00:52.996Z,99886.55
2019-02-07T04:03:33.728Z,99868.25
2019-02-07T04:06:21.066Z,99870.86
2019-02-07T04:09:26.010Z,99870.09
2019-02-07T04:12:22.790Z,99871.48
2019-02-07T04:15:14.066Z,99862.27
2019-02-07T04:18:01.085Z,99860.97
2019-02-07T04:20:40.953Z,99864.97
2019-02-07T04:23:27.890Z,99842.73
2019-02-07T04:26:25.927Z,99847.41
2019-02-07T04:29:11.451Z,99852.23
2019-02-07T04:31:58.409Z,99816.08
2019-02-07T04:35:00.340Z,99812.34
2019-02-07T04:37:45.868Z,99791.50
2019-02-07T04:40:41.632Z,99778.00
2019-02-07T04:43:31.109Z,99766.92
2019-02-07T04:46:26.607Z,99771.92
2019-02-07T04:49:06.306Z,99750.16
2019-02-07T04:52:02.505Z,99746.94
2019-02-07T04:54:40.330Z,99738.20
2019-02-07T04:57:27.226Z,99735.80
2019-02-07T05:00:14.624Z,99730.74
2019-02-07T05:02:51.585Z,99721.71
2019-02-07T05:05:32.926Z,99718.69
2019-02-07T05:08:20.129Z,99709.62
2019-02-07T05:11:16.185Z,99700.49
2019-02-07T05:14:12.259Z,99696.95
2019-02-07T05:16:59.233Z,99708.39
2019-02-07T05:19:52.222Z,99693.97
2019-02-07T05:22:37.936Z,99689.34
2019-02-07T05:25:28.661Z,99696.44
2019-02-07T05:28:21.531Z,99680.31
2019-02-07T05:31:23.389Z,99659.22
2019-02-07T05:33:57.751Z,99684.72
2019-02-07T05:36:47.205Z,99674.99
2019-02-07T05:39:32.795Z,99684.69
2019-02-07T05:42:12.213Z,99676.36
2019-02-07T05:44:59.168Z,99666.70
2019-02-07T05:47:46.170Z,99673.86
2019-02-07T05:50:31.939Z,99666.48
2019-02-07T05:53:18.892Z,99666.61
2019-02-07T05:56:18.031Z,99671.25
2019-02-07T05:59:03.345Z,99655.80
2019-02-07T06:01:54.971Z,99660.16
2019-02-07T06:04:57.021Z,99642.37
2019-02-07T06:07:56.082Z,99641.80
2019-02-07T06:10:43.001Z,99653.91
2019-02-07T06:13:35.752Z,99647.37
2019-02-07T06:16:40.886Z,99639.94
2019-02-07T06:19:27.810Z,99649.34
2019-02-07T06:22:13.710Z,99649.23
2019-02-07T06:24:59.192Z,99641.98
2019-02-07T06:28:04.290Z,99639.59
2019-02-07T06:30:54.160Z,99646.23
2019-02-07T06:33:39.951Z,99642.28
2019-02-07T06:36:26.901Z,99650.28
2019-02-07T06:39:12.721Z,99645.04
2019-02-07T06:42:02.606Z,99659.58
2019-02-07T06:45:06.228Z,99650.17
2019-02-07T06:48:05.458Z,99655.93
2019-02-07T06:50:52.400Z,99647.41
2019-02-07T06:53:57.535Z,99638.41
2019-02-07T06:56:58.279Z,99664.80
2019-02-07T06:59:45.553Z,99651.31
2019-02-07T07:02:35.563Z,99644.42
2019-02-07T07:05:22.565Z,99630.81
2019-02-07T07:08:08.180Z,99627.41
2019-02-07T07:11:01.540Z,99625.73
2019-02-07T07:13:51.555Z,99620.23
2019-02-07T07:16:44.526Z,99605.86
2019-02-07T07:19:40.685Z,99602.92
2019-02-07T07:22:28.190Z,99606.58
2019-02-07T07:25:08.298Z,99592.06
2019-02-07T07:28:07.465Z,99588.42
2019-02-07T07:30:48.515Z,99589.87
2019-02-07T07:33:44.773Z,99589.50
2019-02-07T07:36:31.701Z,99588.94
2019-02-07T07:39:17.715Z,99591.81
2019-02-07T07:42:06.500Z,99582.92
2019-02-07T07:44:52.013Z,99587.33
2019-02-07T07:47:48.015Z,99587.33
2019-02-07T07:50:41.035Z,99597.28
2019-02-07T07:53:28.010Z,99584.48
2019-02-07T07:56:05.305Z,99582.83
2019-02-07T07:58:58.280Z,99579.75
2019-02-07T08:01:43.906Z,99583.81
2019-02-07T08:04:17.230Z,99575.36
2019-02-07T08:27:24.725Z,99593.12
2019-02-07T08:34:42.342Z,99581.04
2019-02-07T08:41:04.050Z,99588.70
2019-02-07T08:47:18.591Z,99581.20
2019-02-07T08:50:40.775Z,99580.52
2019-02-07T08:53:53.434Z,99569.52
2019-02-07T09:00:31.065Z,99574.00
2019-02-07T17:27:50.458Z,99622.19
2019-02-07T22:25:37.722Z,99906.88
2019-02-07T22:28:07.063Z,99911.66
2019-02-07T22:30:34.756Z,99919.48
2019-02-07T22:33:02.258Z,99918.18
2019-02-07T22:35:29.836Z,99914.48
2019-02-07T22:37:57.367Z,99917.77
2019-02-07T22:40:25.122Z,99918.41
2019-02-07T22:42:52.686Z,99918.63
2019-02-07T22:45:22.688Z,99925.19
2019-02-07T22:47:50.305Z,99928.98
2019-02-07T22:50:22.732Z,99934.45
2019-02-07T22:52:56.763Z,99927.83
2019-02-07T22:55:20.124Z,99926.88
2019-02-07T22:57:47.832Z,99936.14
2019-02-07T23:01:09.411Z,99932.09
2019-02-07T23:03:45.240Z,99942.20
2019-02-07T23:06:13.031Z,99948.59
2019-02-07T23:08:40.752Z,99943.28
2019-02-07T23:11:09.192Z,99940.76
2019-02-07T23:13:37.052Z,99944.84
2019-02-07T23:16:07.604Z,99944.58
2019-02-07T23:18:36.090Z,99946.65
2019-02-07T23:21:04.352Z,99944.96
2019-02-07T23:23:31.912Z,99931.20
2019-02-07T23:25:59.634Z,99939.41
2019-02-07T23:28:27.092Z,99943.20
2019-02-07T23:30:55.212Z,99947.70
2019-02-07T23:33:22.773Z,99946.63
2019-02-07T23:35:50.552Z,99946.14
2019-02-07T23:38:18.572Z,99943.85
2019-02-07T23:40:46.228Z,99952.23
2019-02-07T23:43:13.914Z,99956.84
2019-02-07T23:45:41.554Z,99955.86
2019-02-07T23:48:09.152Z,99956.66
2019-02-07T23:50:36.952Z,99959.39
2019-02-07T23:53:14.069Z,99955.28
2019-02-07T23:55:34.532Z,99963.11
2019-02-07T23:58:02.486Z,99971.73
